createdAt,value
2022-10-05T00:00:58.547Z,98407.00
2022-10-05T00:03:28.408Z,98406.00
2022-10-05T00:05:55.586Z,98407.00
2022-10-05T00:08:25.649Z,98403.00
2022-10-05T00:10:54.161Z,98411.00
2022-10-05T00:13:25.498Z,98405.00
2022-10-05T00:16:17.793Z,98391.00
2022-10-05T00:18:53.903Z,98406.00
2022-10-05T00:21:27.460Z,98397.00
2022-10-05T00:23:57.854Z,98392.00
2022-10-05T00:26:33.639Z,98395.00
2022-10-05T00:29:05.777Z,98398.00
2022-10-05T00:31:36.034Z,98403.00
2022-10-05T00:34:03.175Z,98400.00
2022-10-05T00:36:30.545Z,98394.00
2022-10-05T00:39:00.778Z,98395.00
2022-10-05T00:41:50.374Z,98385.00
2022-10-05T00:44:38.244Z,98377.00
2022-10-05T00:47:28.660Z,98379.00
2022-10-05T00:50:21.619Z,98377.00
2022-10-05T00:53:25.748Z,98365.00
2022-10-05T00:56:23.971Z,98363.00
2022-10-05T00:59:07.705Z,98353.00
2022-10-05T01:02:01.372Z,98350.00
2022-10-05T01:04:51.145Z,98346.00
2022-10-05T01:07:46.245Z,98338.00
2022-10-05T01:10:18.886Z,98348.00
2022-10-05T01:13:18.303Z,98331.00
2022-10-05T01:16:10.480Z,98347.00
2022-10-05T01:19:22.754Z,98335.00
2022-10-05T01:22:01.569Z,98332.00
2022-10-05T01:24:49.122Z,98333.00
2022-10-05T01:27:38.767Z,98332.00
2022-10-05T01:30:20.951Z,98313.00
2022-10-05T01:33:21.583Z,98325.00
2022-10-05T01:36:18.791Z,98313.00
2022-10-05T01:39:17.586Z,98324.00
2022-10-05T01:42:29.656Z,98311.00
2022-10-05T01:45:09.757Z,98308.00
2022-10-05T01:47:46.212Z,98304.00
2022-10-05T01:50:36.782Z,98296.00
2022-10-05T01:54:04.457Z,98298.00
2022-10-05T01:56:58.757Z,98299.00
2022-10-05T01:59:41.972Z,98293.00
2022-10-05T02:02:17.904Z,98289.00
2022-10-05T02:05:02.091Z,98284.00
2022-10-05T02:07:41.724Z,98301.00
2022-10-05T02:10:33.674Z,98287.00
2022-10-05T02:13:39.036Z,98271.00
2022-10-05T02:16:21.715Z,98278.00
2022-10-05T02:19:22.457Z,98274.00
2022-10-05T02:21:56.879Z,98272.00
2022-10-05T02:24:30.190Z,98273.00
2022-10-05T02:26:58.212Z,98282.00
2022-10-05T02:29:30.957Z,98286.00
2022-10-05T02:32:15.782Z,98284.00
2022-10-05T02:34:44.116Z,98273.00
2022-10-05T02:37:43.353Z,98272.00
2022-10-05T02:40:25.918Z,98279.00
2022-10-05T02:43:10.820Z,98271.00
2022-10-05T02:45:56.037Z,98273.00
2022-10-05T02:48:56.400Z,98275.00
2022-10-05T02:51:30.150Z,98282.00
2022-10-05T02:54:18.937Z,98281.00
2022-10-05T02:57:01.114Z,98281.00
2022-10-05T02:59:48.269Z,98286.00
2022-10-05T03:02:56.446Z,98294.00
2022-10-05T03:05:53.179Z,98288.00
2022-10-05T03:08:35.838Z,98285.00
2022-10-05T03:11:24.407Z,98293.00
2022-10-05T03:14:39.622Z,98278.00
2022-10-05T03:17:21.596Z,98289.00
2022-10-05T03:20:04.344Z,98287.00
2022-10-05T03:23:04.759Z,98274.00
2022-10-05T03:25:55.810Z,98274.00
2022-10-05T03:28:45.003Z,98279.00
2022-10-05T03:31:35.669Z,98268.00
2022-10-05T03:34:13.006Z,98274.00
2022-10-05T03:36:49.590Z,98272.00
2022-10-05T03:39:34.675Z,98281.00
2022-10-05T03:42:44.607Z,98303.00
2022-10-05T03:45:36.627Z,98303.00
2022-10-05T03:48:10.218Z,98296.00
2022-10-05T03:50:55.905Z,98298.00
2022-10-05T03:53:30.142Z,98288.00
2022-10-05T03:56:20.273Z,98285.00
2022-10-05T03:59:12.289Z,98294.00
2022-10-05T04:01:44.430Z,98297.00
2022-10-05T04:04:20.028Z,98293.00
2022-10-05T04:06:50.792Z,98289.00
2022-10-05T04:09:27.735Z,98290.00
2022-10-05T04:12:36.839Z,98304.00
2022-10-05T04:15:18.976Z,98291.00
2022-10-05T04:18:04.361Z,98292.00
2022-10-05T04:20:43.443Z,98293.00
2022-10-05T04:23:10.659Z,98281.00
2022-10-05T04:25:48.357Z,98283.00
2022-10-05T04:28:52.982Z,98280.00
2022-10-05T04:31:46.149Z,98284.00
2022-10-05T04:35:11.107Z,98278.00
2022-10-05T04:38:20.993Z,98280.00
2022-10-05T04:41:20.087Z,98280.00
2022-10-05T04:44:12.137Z,98283.00
2022-10-05T04:46:57.189Z,98280.00
2022-10-05T04:50:11.987Z,98291.00
2022-10-05T04:53:05.448Z,98294.00
2022-10-05T04:55:58.351Z,98293.00
2022-10-05T04:58:55.894Z,98284.00
2022-10-05T05:01:59.414Z,98284.00
2022-10-05T05:05:08.345Z,98302.00
2022-10-05T05:07:49.971Z,98306.00
2022-10-05T05:10:19.834Z,98305.00
2022-10-05T05:14:07.948Z,98298.00
2022-10-05T05:16:43.653Z,98298.00
2022-10-05T05:19:22.960Z,98308.00
2022-10-05T05:22:16.392Z,98300.00
2022-10-05T05:25:11.239Z,98298.00
2022-10-05T05:27:55.113Z,98305.00
2022-10-05T05:30:44.122Z,98316.00
2022-10-05T05:33:39.839Z,98313.00
2022-10-05T05:36:36.002Z,98316.00
2022-10-05T05:39:24.797Z,98317.00
2022-10-05T05:42:31.044Z,98334.00
2022-10-05T05:45:09.066Z,98325.00
2022-10-05T05:47:41.312Z,98320.00
2022-10-05T05:51:12.208Z,98324.00
2022-10-05T05:53:49.521Z,98322.00
2022-10-05T05:56:40.421Z,98325.00
2022-10-05T05:59:18.510Z,98339.00
2022-10-05T06:02:03.798Z,98337.00
2022-10-05T06:05:21.175Z,98332.00
2022-10-05T06:07:48.281Z,98335.00
2022-10-05T06:10:38.386Z,98335.00
2022-10-05T06:13:35.449Z,98335.00
2022-10-05T06:16:22.285Z,98344.00
2022-10-05T06:19:14.826Z,98346.00
2022-10-05T06:22:12.430Z,98334.00
2022-10-05T06:24:57.934Z,98338.00
2022-10-05T06:27:36.734Z,98337.00
2022-10-05T06:30:08.379Z,98344.00
2022-10-05T06:32:50.202Z,98341.00
2022-10-05T06:35:37.762Z,98348.00
2022-10-05T06:38:32.390Z,98347.00
2022-10-05T06:41:43.392Z,98347.00
2022-10-05T06:44:31.208Z,98348.00
2022-10-05T06:47:10.917Z,98345.00
2022-10-05T06:49:49.857Z,98349.00
2022-10-05T06:52:49.611Z,98353.00
2022-10-05T06:55:38.853Z,98352.00
2022-10-05T06:58:31.122Z,98359.00
2022-10-05T07:01:43.078Z,98350.00
2022-10-05T07:04:24.792Z,98347.00
2022-10-05T07:07:03.239Z,98355.00
2022-10-05T07:10:06.203Z,98341.00
2022-10-05T07:12:51.309Z,98351.00
2022-10-05T07:15:45.441Z,98345.00
2022-10-05T07:18:53.140Z,98348.00
2022-10-05T07:21:46.192Z,98353.00
2022-10-05T07:24:36.733Z,98335.00
2022-10-05T07:27:14.705Z,98338.00
2022-10-05T07:30:07.031Z,98339.00
2022-10-05T07:32:44.868Z,98335.00
2022-10-05T07:35:57.795Z,98344.00
2022-10-05T07:38:46.979Z,98340.00
2022-10-05T07:41:40.363Z,98337.00
2022-10-05T07:44:43.970Z,98330.00
2022-10-05T07:47:49.962Z,98336.00
2022-10-05T07:50:22.863Z,98346.00
2022-10-05T07:52:58.532Z,98335.00
2022-10-05T07:55:52.014Z,98343.00
2022-10-05T07:58:19.085Z,98340.00
2022-10-05T08:01:13.218Z,98343.00
2022-10-05T08:03:54.242Z,98339.00
2022-10-05T08:06:27.194Z,98341.00
2022-10-05T08:09:19.779Z,98347.00
2022-10-05T08:12:26.934Z,98339.00
2022-10-05T08:15:03.359Z,98343.00
2022-10-05T08:18:21.641Z,98333.00
2022-10-05T08:20:57.392Z,98352.00
2022-10-05T08:23:42.963Z,98334.00
2022-10-05T08:26:31.003Z,98339.00
2022-10-05T08:29:18.539Z,98340.00
2022-10-05T08:31:50.113Z,98335.00
2022-10-05T08:34:27.717Z,98339.00
2022-10-05T08:37:08.758Z,98335.00
2022-10-05T08:40:19.176Z,98343.00
2022-10-05T08:43:04.541Z,98343.00
2022-10-05T08:45:55.940Z,98336.00
2022-10-05T08:49:00.015Z,98338.00
2022-10-05T08:51:53.901Z,98342.00
2022-10-05T08:54:42.308Z,98342.00
2022-10-05T08:57:31.269Z,98351.00
2022-10-05T09:00:28.299Z,98347.00
2022-10-05T09:03:49.447Z,98351.00
2022-10-05T09:06:56.611Z,98360.00
2022-10-05T09:09:57.166Z,98354.00
2022-10-05T09:12:53.703Z,98365.00
2022-10-05T09:15:54.893Z,98366.00
2022-10-05T09:18:52.276Z,98366.00
2022-10-05T09:22:05.543Z,98366.00
2022-10-05T09:25:24.208Z,98374.00
2022-10-05T09:27:59.466Z,98367.00
2022-10-05T09:30:57.172Z,98366.00
2022-10-05T09:33:54.070Z,98363.00
2022-10-05T09:36:48.247Z,98359.00
2022-10-05T09:39:51.437Z,98365.00
2022-10-05T09:42:46.071Z,98362.00
2022-10-05T09:45:44.417Z,98364.00
2022-10-05T09:48:48.317Z,98365.00
2022-10-05T09:51:49.815Z,98360.00
2022-10-05T09:54:37.915Z,98356.00
2022-10-05T09:58:08.203Z,98352.00
2022-10-05T10:01:09.115Z,98350.00
2022-10-05T10:03:56.798Z,98354.00
2022-10-05T10:07:03.673Z,98350.00
2022-10-05T10:09:56.195Z,98351.00
2022-10-05T10:13:06.712Z,98339.00
2022-10-05T10:15:46.086Z,98341.00
2022-10-05T10:18:26.368Z,98345.00
2022-10-05T10:21:12.033Z,98338.00
2022-10-05T10:24:08.391Z,98336.00
2022-10-05T10:27:08.781Z,98345.00
2022-10-05T10:30:27.607Z,98346.00
2022-10-05T10:33:41.694Z,98337.00
2022-10-05T10:36:45.923Z,98344.00
2022-10-05T10:39:56.980Z,98337.00
2022-10-05T10:42:42.231Z,98342.00
2022-10-05T10:45:39.795Z,98338.00
2022-10-05T10:48:09.466Z,98348.00
2022-10-05T10:51:04.806Z,98350.00
2022-10-05T10:53:57.581Z,98348.00
2022-10-05T10:57:06.623Z,98339.00
2022-10-05T10:59:47.600Z,98336.00
2022-10-05T11:02:27.868Z,98335.00
2022-10-05T11:05:23.218Z,98330.00
2022-10-05T11:08:32.337Z,98338.00
2022-10-05T11:11:17.955Z,98334.00
2022-10-05T11:14:22.163Z,98332.00
2022-10-05T11:17:04.181Z,98331.00
2022-10-05T11:20:02.903Z,98325.00
2022-10-05T11:22:54.080Z,98320.00
2022-10-05T11:25:46.014Z,98325.00
2022-10-05T11:28:36.473Z,98313.00
2022-10-05T11:31:47.811Z,98305.00
2022-10-05T11:34:55.353Z,98308.00
2022-10-05T11:38:08.091Z,98308.00
2022-10-05T11:41:08.712Z,98302.00
2022-10-05T11:44:28.961Z,98299.00
2022-10-05T11:47:17.845Z,98305.00
2022-10-05T11:50:22.119Z,98290.00
2022-10-05T11:53:03.942Z,98279.00
2022-10-05T11:56:04.326Z,98278.00
2022-10-05T11:58:43.961Z,98269.00
2022-10-05T12:01:56.257Z,98270.00
2022-10-05T12:05:02.129Z,98258.00
2022-10-05T12:08:01.467Z,98257.00
2022-10-05T12:11:16.919Z,98260.00
2022-10-05T12:13:58.163Z,98254.00
2022-10-05T12:16:39.172Z,98249.00
2022-10-05T12:19:29.808Z,98249.00
2022-10-05T12:22:22.179Z,98250.00
2022-10-05T12:25:22.079Z,98250.00
2022-10-05T12:27:54.890Z,98249.00
2022-10-05T12:30:54.817Z,98242.00
2022-10-05T12:33:33.131Z,98244.00
2022-10-05T12:36:15.517Z,98243.00
2022-10-05T12:38:51.059Z,98233.00
2022-10-05T12:41:45.754Z,98235.00
2022-10-05T12:44:22.088Z,98242.00
2022-10-05T12:47:23.834Z,98239.00
2022-10-05T12:50:12.091Z,98233.00
2022-10-05T12:52:56.221Z,98234.00
2022-10-05T12:55:57.070Z,98227.00
2022-10-05T12:58:35.986Z,98222.00
2022-10-05T13:01:55.667Z,98224.00
2022-10-05T13:04:51.271Z,98224.00
2022-10-05T13:07:38.666Z,98227.00
2022-10-05T13:10:48.674Z,98227.00
2022-10-05T13:13:44.640Z,98219.00
2022-10-05T13:16:33.216Z,98224.00
2022-10-05T13:19:30.917Z,98223.00
2022-10-05T13:22:18.181Z,98227.00
2022-10-05T13:25:12.916Z,98221.00
2022-10-05T13:28:11.979Z,98220.00
2022-10-05T13:30:42.219Z,98223.00
2022-10-05T13:33:47.721Z,98222.00
2022-10-05T13:36:45.503Z,98214.00
2022-10-05T13:39:38.644Z,98217.00
2022-10-05T13:42:43.010Z,98213.00
2022-10-05T13:45:24.818Z,98210.00
2022-10-05T13:48:22.430Z,98214.00
2022-10-05T13:51:08.997Z,98210.00
2022-10-05T13:53:50.145Z,98216.00
2022-10-05T13:56:43.481Z,98213.00
2022-10-05T13:59:49.367Z,98197.00
2022-10-05T14:02:29.805Z,98204.00
2022-10-05T14:05:18.994Z,98202.00
2022-10-05T14:07:58.728Z,98198.00
2022-10-05T14:10:44.693Z,98200.00
2022-10-05T14:13:47.110Z,98199.00
2022-10-05T14:16:14.111Z,98202.00
2022-10-05T14:19:11.399Z,98209.00
2022-10-05T14:22:05.379Z,98211.00
2022-10-05T14:24:45.426Z,98207.00
2022-10-05T14:27:27.961Z,98199.00
2022-10-05T14:30:06.836Z,98199.00
2022-10-05T14:32:52.319Z,98198.00
2022-10-05T14:35:22.448Z,98197.00
2022-10-05T14:38:02.906Z,98198.00
2022-10-05T14:40:36.677Z,98193.00
2022-10-05T14:43:15.864Z,98193.00
2022-10-05T14:45:57.864Z,98199.00
2022-10-05T14:48:29.202Z,98198.00
2022-10-05T14:51:02.285Z,98200.00
2022-10-05T14:54:01.825Z,98192.00
2022-10-05T14:56:58.203Z,98186.00
2022-10-05T15:00:00.038Z,98195.00
2022-10-05T15:02:52.552Z,98189.00
2022-10-05T15:05:35.902Z,98182.00
2022-10-05T15:08:11.868Z,98195.00
2022-10-05T15:11:11.718Z,98188.00
2022-10-05T15:13:44.117Z,98186.00
2022-10-05T15:16:28.564Z,98189.00
2022-10-05T15:19:08.338Z,98190.00
2022-10-05T15:21:53.292Z,98185.00
2022-10-05T15:24:26.478Z,98187.00
2022-10-05T15:27:01.632Z,98185.00
2022-10-05T15:29:52.426Z,98182.00
2022-10-05T15:32:41.747Z,98180.00
2022-10-05T15:35:30.580Z,98184.00
2022-10-05T15:38:25.829Z,98189.00
2022-10-05T15:41:24.934Z,98186.00
2022-10-05T15:44:24.217Z,98188.00
2022-10-05T15:47:06.454Z,98184.00
2022-10-05T15:50:07.289Z,98186.00
2022-10-05T15:53:03.481Z,98182.00
2022-10-05T15:56:13.383Z,98185.00
2022-10-05T15:59:18.562Z,98190.00
2022-10-05T16:01:55.720Z,98194.00
2022-10-05T16:04:41.930Z,98183.00
2022-10-05T16:07:37.628Z,98183.00
2022-10-05T16:10:23.484Z,98194.00
2022-10-05T16:13:22.172Z,98183.00
2022-10-05T16:16:21.094Z,98184.00
2022-10-05T16:19:15.951Z,98184.00
2022-10-05T16:22:07.113Z,98189.00
2022-10-05T16:25:07.573Z,98193.00
2022-10-05T16:27:37.284Z,98194.00
2022-10-05T16:30:12.743Z,98192.00
2022-10-05T16:33:08.907Z,98193.00
2022-10-05T16:35:57.190Z,98195.00
2022-10-05T16:39:11.997Z,98197.00
2022-10-05T16:42:00.669Z,98204.00
2022-10-05T16:44:53.617Z,98196.00
2022-10-05T16:47:57.371Z,98197.00
2022-10-05T16:50:49.585Z,98196.00
2022-10-05T16:53:29.055Z,98196.00
2022-10-05T16:56:04.912Z,98200.00
2022-10-05T16:58:43.849Z,98203.00
2022-10-05T17:01:56.306Z,98206.00
2022-10-05T17:04:45.226Z,98210.00
2022-10-05T17:07:24.094Z,98205.00
2022-10-05T17:10:16.086Z,98207.00
2022-10-05T17:13:16.388Z,98203.00
2022-10-05T17:16:26.805Z,98207.00
2022-10-05T17:19:27.871Z,98202.00
2022-10-05T17:22:59.193Z,98211.00
2022-10-05T17:25:45.536Z,98214.00
2022-10-05T17:28:24.613Z,98219.00
2022-10-05T17:31:17.683Z,98218.00
2022-10-05T17:33:59.866Z,98222.00
2022-10-05T17:36:43.000Z,98225.00
2022-10-05T17:39:44.000Z,98227.00
2022-10-05T17:42:26.499Z,98222.00
2022-10-05T17:45:20.916Z,98217.00
2022-10-05T17:48:25.117Z,98218.00
2022-10-05T17:51:11.349Z,98214.00
2022-10-05T17:54:03.157Z,98218.00
2022-10-05T17:56:36.631Z,98215.00
2022-10-05T17:59:06.694Z,98222.00
2022-10-05T18:01:39.810Z,98219.00
2022-10-05T18:04:12.933Z,98221.00
2022-10-05T18:07:00.041Z,98218.00
2022-10-05T18:09:27.828Z,98223.00
2022-10-05T18:12:16.622Z,98229.00
2022-10-05T18:15:08.439Z,98230.00
2022-10-05T18:17:46.495Z,98232.00
2022-10-05T18:20:32.687Z,98225.00
2022-10-05T18:23:09.815Z,98224.00
2022-10-05T18:26:06.458Z,98235.00
2022-10-05T18:28:49.225Z,98237.00
2022-10-05T18:31:40.132Z,98236.00
2022-10-05T18:35:02.067Z,98227.00
2022-10-05T18:37:43.807Z,98238.00
2022-10-05T18:40:41.201Z,98245.00
2022-10-05T18:43:40.985Z,98252.00
2022-10-05T18:46:22.374Z,98253.00
2022-10-05T18:49:42.531Z,98246.00
2022-10-05T18:52:36.485Z,98255.00
2022-10-05T18:55:28.285Z,98254.00
2022-10-05T18:58:35.915Z,98258.00
2022-10-05T19:01:38.307Z,98263.00
2022-10-05T19:04:14.181Z,98264.00
2022-10-05T19:07:05.104Z,98258.00
2022-10-05T19:09:56.248Z,98260.00
2022-10-05T19:12:32.717Z,98263.00
2022-10-05T19:15:25.244Z,98270.00
2022-10-05T19:18:25.940Z,98266.00
2022-10-05T19:21:22.846Z,98262.00
2022-10-05T19:24:33.881Z,98271.00
2022-10-05T19:27:27.576Z,98272.00
2022-10-05T19:30:19.514Z,98280.00
2022-10-05T19:33:06.366Z,98287.00
2022-10-05T19:37:01.079Z,98291.00
2022-10-05T19:39:50.816Z,98294.00
2022-10-05T19:43:03.761Z,98300.00
2022-10-05T19:45:55.042Z,98300.00
2022-10-05T19:48:27.955Z,98310.00
2022-10-05T19:51:01.077Z,98319.00
2022-10-05T19:53:37.972Z,98320.00
2022-10-05T19:56:25.294Z,98314.00
2022-10-05T19:58:57.671Z,98319.00
2022-10-05T20:01:40.816Z,98327.00
2022-10-05T20:04:10.635Z,98327.00
2022-10-05T20:06:39.696Z,98335.00
2022-10-05T20:09:21.867Z,98335.00
2022-10-05T20:11:51.725Z,98337.00
2022-10-05T20:14:31.554Z,98341.00
2022-10-05T20:17:44.441Z,98342.00
2022-10-05T20:20:34.536Z,98348.00
2022-10-05T20:23:22.687Z,98355.00
2022-10-05T20:26:09.457Z,98359.00
2022-10-05T20:28:37.001Z,98356.00
2022-10-05T20:31:08.178Z,98359.00
2022-10-05T20:33:35.318Z,98370.00
2022-10-05T20:36:03.828Z,98371.00
2022-10-05T20:38:31.813Z,98378.00
2022-10-05T20:40:59.150Z,98386.00
2022-10-05T20:43:26.241Z,98389.00
2022-10-05T20:45:53.902Z,98396.00
2022-10-05T20:48:21.066Z,98391.00
2022-10-05T20:50:48.320Z,98395.00
2022-10-05T20:53:15.470Z,98402.00
2022-10-05T20:55:43.159Z,98403.00
2022-10-05T20:58:11.218Z,98401.00
2022-10-05T21:00:57.236Z,98401.00
2022-10-05T21:03:24.519Z,98411.00
2022-10-05T21:05:51.880Z,98406.00
2022-10-05T21:08:19.077Z,98412.00
2022-10-05T21:10:46.177Z,98423.00
2022-10-05T21:13:13.233Z,98423.00
2022-10-05T21:15:40.498Z,98421.00
2022-10-05T21:18:07.568Z,98419.00
2022-10-05T21:20:34.782Z,98417.00
2022-10-05T21:23:01.975Z,98414.00
2022-10-05T21:25:29.339Z,98423.00
2022-10-05T21:27:56.421Z,98419.00
2022-10-05T21:30:23.610Z,98415.00
2022-10-05T21:32:50.665Z,98423.00
2022-10-05T21:35:17.992Z,98419.00
2022-10-05T21:37:45.052Z,98419.00
2022-10-05T21:40:12.256Z,98426.00
2022-10-05T21:42:39.328Z,98415.00
2022-10-05T21:45:07.511Z,98420.00
2022-10-05T21:47:34.832Z,98428.00
2022-10-05T21:50:03.905Z,98423.00
2022-10-05T21:52:31.300Z,98429.00
2022-10-05T21:54:58.905Z,98425.00
2022-10-05T21:57:26.036Z,98431.00
2022-10-05T21:59:53.298Z,98430.00
2022-10-05T22:02:20.524Z,98444.00
2022-10-05T22:04:47.691Z,98437.00
2022-10-05T22:07:20.187Z,98450.00
2022-10-05T22:09:51.494Z,98443.00
2022-10-05T22:12:20.090Z,98453.00
2022-10-05T22:14:47.976Z,98452.00
2022-10-05T22:17:23.798Z,98459.00
2022-10-05T22:19:51.629Z,98453.00
2022-10-05T22:22:18.709Z,98450.00
2022-10-05T22:24:46.039Z,98455.00
2022-10-05T22:27:13.771Z,98455.00
2022-10-05T22:29:41.900Z,98450.00
2022-10-05T22:32:09.266Z,98457.00
2022-10-05T22:34:36.495Z,98458.00
2022-10-05T22:37:04.853Z,98463.00
2022-10-05T22:39:32.479Z,98463.00
2022-10-05T22:41:59.658Z,98459.00
2022-10-05T22:44:26.822Z,98460.00
2022-10-05T22:46:53.820Z,98463.00
2022-10-05T22:49:20.975Z,98460.00
2022-10-05T22:51:49.340Z,98466.00
2022-10-05T22:54:16.823Z,98468.00
2022-10-05T22:56:44.593Z,98474.00
2022-10-05T22:59:11.921Z,98470.00
2022-10-05T23:01:38.961Z,98472.00
2022-10-05T23:04:07.986Z,98480.00
2022-10-05T23:06:35.189Z,98472.00
2022-10-05T23:09:02.310Z,98478.00
2022-10-05T23:11:30.214Z,98485.00
2022-10-05T23:13:57.676Z,98485.00
2022-10-05T23:16:27.860Z,98493.00
2022-10-05T23:18:56.117Z,98489.00
2022-10-05T23:21:27.285Z,98486.00
2022-10-05T23:23:55.021Z,98497.00
2022-10-05T23:26:24.874Z,98496.00
2022-10-05T23:28:52.346Z,98497.00
2022-10-05T23:31:26.067Z,98494.00
2022-10-05T23:33:54.208Z,98500.00
2022-10-05T23:36:24.931Z,98504.00
2022-10-05T23:38:52.588Z,98495.00
2022-10-05T23:41:20.480Z,98512.00
2022-10-05T23:43:48.200Z,98515.00
2022-10-05T23:46:16.191Z,98519.00
2022-10-05T23:48:43.910Z,98524.00
2022-10-05T23:51:13.336Z,98519.00
2022-10-05T23:53:40.641Z,98519.00
2022-10-05T23:56:08.324Z,98525.00
2022-10-05T23:58:35.482Z,98522.00
